Time;durP1;ratioP1;P1;durP2;ratioP2;P2;SDS_P1;SDS_P2;PMS_P1;PMS_P2;Temp;Humidity;BMP_temperature;BMP_pressure;BME280_temperature;BME280_humidity;BME280_pressure;Samples;Min_cycle;Max_cycle;Signal;HPM_P1;HPM_P2
2022/09/05 00:00:08;;;;;;;3.90;3.60;;;18.30;99.90;;;;;;5018011;28;20412;-82
2022/09/05 00:03:15;;;;;;;4.13;3.83;;;18.30;99.90;;;;;;5018496;28;20472;-82
2022/09/05 00:06:10;;;;;;;2.70;2.50;;;18.20;99.90;;;;;;5018083;28;20532;-82
2022/09/05 00:09:03;;;;;;;6.17;3.87;;;18.20;99.90;;;;;;5018437;28;20531;-81
2022/09/05 00:11:58;;;;;;;3.10;2.80;;;18.20;99.90;;;;;;5018441;28;20564;-81
2022/09/05 00:15:17;;;;;;;3.27;2.70;;;18.20;99.90;;;;;;5018187;28;20459;-81
2022/09/05 00:18:28;;;;;;;5.00;3.47;;;18.60;99.90;;;;;;5018409;28;20415;-82
2022/09/05 00:21:36;;;;;;;3.50;3.20;;;18.80;99.90;;;;;;5018853;28;21100;-82
2022/09/05 00:24:42;;;;;;;4.10;3.80;;;18.90;99.90;;;;;;5019147;28;20387;-81
2022/09/05 00:28:00;;;;;;;3.83;3.50;;;19.00;99.90;;;;;;5018533;28;20452;-82
2022/09/05 00:31:22;;;;;;;4.00;3.70;;;19.00;99.90;;;;;;5017541;28;20408;-82
2022/09/05 00:34:25;;;;;;;3.63;3.33;;;19.10;99.90;;;;;;5018262;28;20392;-81
2022/09/05 00:37:10;;;;;;;3.07;2.87;;;19.10;99.90;;;;;;5017774;28;20411;-82
2022/09/05 00:40:12;;;;;;;5.23;3.10;;;19.10;99.90;;;;;;5018694;28;20896;-80
2022/09/05 00:43:04;;;;;;;3.27;3.07;;;19.10;99.90;;;;;;5017852;28;20932;-82
2022/09/05 00:45:57;;;;;;;4.20;3.80;;;19.10;99.90;;;;;;5017385;28;20467;-82
2022/09/05 00:48:48;;;;;;;6.37;3.70;;;18.90;99.90;;;;;;5017864;28;20446;-81
2022/09/05 00:51:50;;;;;;;3.83;3.53;;;19.00;99.90;;;;;;5002586;28;20399;-81
2022/09/05 00:54:57;;;;;;;3.53;3.33;;;18.90;99.90;;;;;;5017735;28;20399;-80
2022/09/05 00:58:03;;;;;;;4.00;3.67;;;18.90;99.90;;;;;;5017371;28;20578;-81
2022/09/05 01:00:54;;;;;;;4.70;4.00;;;18.80;99.90;;;;;;5017550;28;20391;-81
2022/09/05 01:04:08;;;;;;;3.77;3.47;;;18.80;99.90;;;;;;5017939;28;20900;-81
2022/09/05 01:07:09;;;;;;;3.87;3.50;;;18.80;99.90;;;;;;5017416;28;20395;-82
2022/09/05 01:10:11;;;;;;;3.77;3.43;;;18.90;99.90;;;;;;5017932;28;20435;-81
2022/09/05 01:13:28;;;;;;;9.50;3.87;;;18.90;99.90;;;;;;5017310;28;20387;-81
2022/09/05 01:16:38;;;;;;;3.90;3.60;;;18.90;99.90;;;;;;5017158;28;20466;-81
2022/09/05 01:19:42;;;;;;;3.90;3.50;;;18.90;99.90;;;;;;5017219;28;20404;-81
2022/09/05 01:22:59;;;;;;;4.23;3.83;;;18.90;99.90;;;;;;5017869;28;20400;-82
2022/09/05 01:26:09;;;;;;;3.17;2.97;;;18.90;99.90;;;;;;5016786;28;20552;-82
2022/09/05 01:29:03;;;;;;;3.83;3.53;;;18.80;99.90;;;;;;5021089;28;20408;-82
2022/09/05 01:32:14;;;;;;;3.97;3.57;;;18.80;99.90;;;;;;5019293;28;20946;-82
2022/09/05 01:35:30;;;;;;;7.73;3.17;;;18.70;99.90;;;;;;5020191;28;20400;-82
2022/09/05 01:38:34;;;;;;;5.30;3.57;;;18.50;99.90;;;;;;5018000;28;20938;-82
2022/09/05 01:41:41;;;;;;;4.50;3.93;;;18.10;99.90;;;;;;5018122;28;20396;-82
2022/09/05 01:44:40;;;;;;;4.67;4.03;;;17.60;99.90;;;;;;5017962;28;20392;-82
2022/09/05 01:47:52;;;;;;;3.47;3.27;;;17.50;99.90;;;;;;5018532;28;20396;-81
2022/09/05 01:50:55;;;;;;;3.97;3.30;;;17.30;99.90;;;;;;5004042;28;20768;-82
2022/09/05 01:54:10;;;;;;;3.40;3.10;;;17.30;99.90;;;;;;5034786;28;20436;-81
2022/09/05 01:57:23;;;;;;;4.10;3.80;;;17.20;99.90;;;;;;5037203;28;20419;-81
2022/09/05 02:00:15;;;;;;;3.47;3.17;;;17.20;99.90;;;;;;5026533;28;20460;-81
2022/09/05 02:03:22;;;;;;;3.43;3.13;;;17.00;99.90;;;;;;5016316;28;20391;-82
2022/09/05 02:06:26;;;;;;;4.00;3.60;;;16.90;99.90;;;;;;5016855;28;20804;-81
2022/09/05 02:09:43;;;;;;;4.63;4.13;;;17.00;99.90;;;;;;5016755;28;20787;-81
2022/09/05 02:12:36;;;;;;;4.37;3.97;;;17.00;99.90;;;;;;5016588;28;20427;-82
2022/09/05 02:15:24;;;;;;;4.00;3.57;;;17.00;99.90;;;;;;5016563;28;20547;-81
2022/09/05 02:18:17;;;;;;;4.20;3.80;;;17.00;99.90;;;;;;5016222;28;20928;-82
2022/09/05 02:21:09;;;;;;;5.17;4.00;;;17.00;99.90;;;;;;5016674;28;20392;-81
2022/09/05 02:24:12;;;;;;;4.50;3.77;;;17.00;99.90;;;;;;5016860;28;20419;-82
2022/09/05 02:27:20;;;;;;;3.50;3.20;;;17.10;99.90;;;;;;5016177;28;20395;-81
2022/09/05 02:30:20;;;;;;;3.83;3.53;;;17.10;99.90;;;;;;5017133;28;20851;-81
2022/09/05 02:33:28;;;;;;;4.53;4.13;;;17.40;99.90;;;;;;5016699;28;20430;-81
2022/09/05 02:36:27;;;;;;;4.40;3.60;;;17.70;99.90;;;;;;5004958;28;20435;-81
2022/09/05 02:39:31;;;;;;;3.73;3.43;;;17.80;99.90;;;;;;5016534;28;20427;-81
2022/09/05 02:42:26;;;;;;;3.97;3.67;;;18.00;99.90;;;;;;5016911;28;20388;-82
2022/09/05 02:45:27;;;;;;;4.20;3.80;;;18.10;99.90;;;;;;5016659;28;20440;-82
2022/09/05 02:48:27;;;;;;;4.43;4.07;;;18.10;99.90;;;;;;5016759;28;20427;-82
2022/09/05 02:51:44;;;;;;;4.27;3.87;;;18.10;99.90;;;;;;5017071;28;20778;-82
2022/09/05 02:54:32;;;;;;;3.57;3.20;;;18.10;99.90;;;;;;5006423;28;20392;-82
2022/09/05 02:57:34;;;;;;;8.80;3.67;;;18.10;99.90;;;;;;5019950;28;20510;-82
2022/09/05 03:00:22;;;;;;;4.73;4.33;;;18.10;99.90;;;;;;5019249;28;20449;-82
2022/09/05 03:03:23;;;;;;;4.80;4.13;;;18.10;99.90;;;;;;5019864;28;20513;-82
2022/09/05 03:06:29;;;;;;;3.90;3.60;;;18.10;99.90;;;;;;5005751;28;20434;-81
2022/09/05 03:09:37;;;;;;;4.27;3.87;;;18.10;99.90;;;;;;5019912;28;20428;-81
2022/09/05 03:12:49;;;;;;;3.87;3.57;;;18.10;99.90;;;;;;5019603;28;20451;-82
2022/09/05 03:16:01;;;;;;;3.50;3.20;;;18.10;99.90;;;;;;5019671;28;20518;-82
2022/09/05 03:19:14;;;;;;;6.40;3.30;;;18.10;99.90;;;;;;5020513;28;20396;-82
2022/09/05 03:22:30;;;;;;;5.40;4.23;;;18.10;99.90;;;;;;5019399;28;20403;-81
2022/09/05 03:25:48;;;;;;;3.83;3.53;;;18.00;99.90;;;;;;5009128;28;20871;-81
2022/09/05 03:29:09;;;;;;;3.90;3.60;;;18.10;99.90;;;;;;5019474;28;20388;-81
2022/09/05 03:32:30;;;;;;;3.60;3.30;;;18.00;99.90;;;;;;5019450;28;20836;-81
2022/09/05 03:35:45;;;;;;;4.80;4.40;;;18.00;99.90;;;;;;5007354;28;20391;-81
2022/09/05 03:39:02;;;;;;;3.80;3.50;;;17.90;99.90;;;;;;5018885;28;20396;-81
2022/09/05 03:42:22;;;;;;;4.83;4.20;;;17.90;99.90;;;;;;5018976;28;20496;-81
2022/09/05 03:45:42;;;;;;;4.53;4.13;;;18.00;99.90;;;;;;5018618;28;20501;-81
2022/09/05 03:48:50;;;;;;;5.10;4.57;;;18.00;99.90;;;;;;5012310;28;20404;-82
2022/09/05 03:52:07;;;;;;;7.63;6.20;;;18.00;99.90;;;;;;4995808;28;20388;-82
2022/09/05 03:55:11;;;;;;;6.40;4.57;;;17.80;99.90;;;;;;5018465;28;20773;-83
2022/09/05 03:58:20;;;;;;;7.30;4.23;;;17.70;99.90;;;;;;5018167;28;20431;-82
2022/09/05 04:01:34;;;;;;;5.80;4.70;;;17.80;99.90;;;;;;5019079;28;20383;-82
2022/09/05 04:04:29;;;;;;;4.87;4.30;;;17.80;99.90;;;;;;5017757;28;20858;-83
2022/09/05 04:07:32;;;;;;;6.00;5.37;;;17.80;99.90;;;;;;5018153;28;20392;-82
2022/09/05 04:10:44;;;;;;;4.70;4.30;;;17.80;99.90;;;;;;5018807;28;20396;-82
2022/09/05 04:13:47;;;;;;;5.27;4.77;;;17.80;99.90;;;;;;5018493;28;20400;-83
2022/09/05 04:16:42;;;;;;;7.30;5.27;;;17.70;99.90;;;;;;5018326;28;20883;-82
2022/09/05 04:19:33;;;;;;;6.27;5.07;;;17.70;99.90;;;;;;5018669;28;20416;-82
2022/09/05 04:22:34;;;;;;;5.90;5.30;;;17.70;99.90;;;;;;5017343;28;20440;-83
2022/09/05 04:25:38;;;;;;;5.80;5.20;;;17.60;99.90;;;;;;5018470;28;20443;-83
2022/09/05 04:28:44;;;;;;;5.87;5.10;;;17.60;99.90;;;;;;5018352;28;20399;-82
2022/09/05 04:31:44;;;;;;;5.30;4.80;;;17.60;99.90;;;;;;5018907;28;20943;-82
2022/09/05 04:34:55;;;;;;;8.70;4.50;;;17.60;99.90;;;;;;5018103;28;20416;-81
2022/09/05 04:37:54;;;;;;;5.00;4.60;;;17.60;99.90;;;;;;5018224;28;20392;-82
2022/09/05 04:40:54;;;;;;;5.10;4.60;;;17.60;99.90;;;;;;5017698;28;20917;-83
2022/09/05 04:43:47;;;;;;;5.80;5.30;;;17.60;99.90;;;;;;5003476;28;20451;-83
2022/09/05 04:46:41;;;;;;;5.10;4.60;;;17.60;99.90;;;;;;5018389;28;21035;-82
2022/09/05 04:49:31;;;;;;;4.60;4.20;;;17.50;99.90;;;;;;5012622;28;20407;-82
2022/09/05 04:52:45;;;;;;;5.90;4.60;;;17.50;99.90;;;;;;5020915;28;20403;-81
2022/09/05 04:55:42;;;;;;;4.10;3.80;;;17.50;99.90;;;;;;5007334;28;20399;-81
2022/09/05 04:58:34;;;;;;;4.87;4.47;;;17.50;99.90;;;;;;5018855;28;20412;-82
2022/09/05 05:01:23;;;;;;;4.87;4.47;;;17.50;99.90;;;;;;5002372;28;20459;-82
2022/09/05 05:04:15;;;;;;;6.40;4.57;;;17.40;99.90;;;;;;5017586;28;20396;-82
2022/09/05 05:07:15;;;;;;;5.20;4.70;;;17.50;99.90;;;;;;5017344;28;20424;-81
2022/09/05 05:10:03;;;;;;;6.70;5.20;;;17.50;99.90;;;;;;5017104;28;20415;-82
2022/09/05 05:13:02;;;;;;;6.20;5.60;;;17.50;99.90;;;;;;5017093;28;20412;-81
2022/09/05 05:15:54;;;;;;;15.10;6.60;;;17.60;99.90;;;;;;5016821;28;20513;-81
2022/09/05 05:19:08;;;;;;;7.30;5.60;;;17.50;99.90;;;;;;5017692;28;20396;-82
2022/09/05 05:21:56;;;;;;;5.97;5.37;;;17.50;99.90;;;;;;5018868;28;20427;-82
2022/09/05 05:24:45;;;;;;;5.30;4.80;;;17.40;99.90;;;;;;5018234;28;20493;-81
2022/09/05 05:27:45;;;;;;;6.17;5.73;;;17.50;99.90;;;;;;5002802;28;20768;-81
2022/09/05 05:30:32;;;;;;;6.53;6.00;;;17.40;99.90;;;;;;5017747;28;20423;-81
2022/09/05 05:33:32;;;;;;;4.70;4.30;;;17.20;99.90;;;;;;5017263;28;20395;-81
2022/09/05 05:36:23;;;;;;;5.43;4.93;;;17.00;99.90;;;;;;5013980;28;20392;-82
2022/09/05 05:39:14;;;;;;;9.80;6.40;;;17.00;99.90;;;;;;5004689;28;20785;-81
2022/09/05 05:42:01;;;;;;;10.23;6.03;;;17.10;99.90;;;;;;4997830;28;21018;-81
2022/09/05 05:44:50;;;;;;;6.30;5.80;;;17.40;99.90;;;;;;4997299;28;20444;-81
2022/09/05 05:47:41;;;;;;;5.93;5.33;;;17.70;99.90;;;;;;4997891;28;20395;-82
2022/09/05 05:50:50;;;;;;;6.57;5.97;;;17.80;99.90;;;;;;4994165;28;20428;-82
2022/09/05 05:54:10;;;;;;;7.23;6.17;;;17.70;99.90;;;;;;4994592;28;20445;-82
2022/09/05 05:57:21;;;;;;;7.10;6.40;;;17.80;99.90;;;;;;4997946;28;20463;-81
2022/09/05 06:00:16;;;;;;;6.30;5.70;;;17.90;99.90;;;;;;4996185;28;20515;-82
2022/09/05 06:03:23;;;;;;;8.40;6.93;;;17.90;99.90;;;;;;4983645;28;20828;-81
2022/09/05 06:06:21;;;;;;;5.77;5.33;;;18.00;99.90;;;;;;4997532;28;20482;-81
2022/09/05 06:09:39;;;;;;;7.03;6.43;;;18.10;99.90;;;;;;4995221;28;20440;-80
2022/09/05 06:13:01;;;;;;;7.00;6.30;;;18.10;99.90;;;;;;4979909;28;21009;-81
2022/09/05 06:16:09;;;;;;;6.47;5.87;;;18.10;99.90;;;;;;4994633;28;20463;-81
2022/09/05 06:19:25;;;;;;;7.53;5.20;;;18.20;99.90;;;;;;4993745;28;20505;-81
2022/09/05 06:22:36;;;;;;;7.07;6.30;;;18.20;99.90;;;;;;4993629;28;20784;-81
2022/09/05 06:25:50;;;;;;;7.23;6.13;;;18.20;99.90;;;;;;4994485;28;20536;-81
2022/09/05 06:28:58;;;;;;;7.03;6.33;;;17.90;99.90;;;;;;5000423;28;20439;-80
2022/09/05 06:32:11;;;;;;;8.63;5.93;;;17.70;99.90;;;;;;5009224;28;20480;-79
2022/09/05 06:35:34;;;;;;;7.40;6.20;;;17.80;99.90;;;;;;4988305;28;20495;-80
2022/09/05 06:38:50;;;;;;;9.23;6.10;;;18.00;99.90;;;;;;4998363;28;20427;-80
2022/09/05 06:42:03;;;;;;;6.00;5.50;;;18.10;99.90;;;;;;5001060;28;20953;-82
2022/09/05 06:45:15;;;;;;;10.77;6.00;;;18.30;99.90;;;;;;4997329;28;20574;-81
2022/09/05 06:48:16;;;;;;;7.60;6.90;;;18.50;99.90;;;;;;5001258;28;20557;-79
2022/09/05 06:51:24;;;;;;;5.60;5.17;;;18.70;99.90;;;;;;4993685;28;20496;-79
2022/09/05 06:54:28;;;;;;;7.00;6.40;;;18.80;99.90;;;;;;4997331;28;20786;-79
2022/09/05 06:57:40;;;;;;;10.03;5.57;;;18.70;99.90;;;;;;4997109;28;20476;-79
2022/09/05 07:00:33;;;;;;;19.80;6.47;;;18.80;99.90;;;;;;4988588;28;20688;-79
2022/09/05 07:03:45;;;;;;;10.90;8.73;;;18.80;99.90;;;;;;4995896;28;20511;-80
2022/09/05 07:07:00;;;;;;;8.83;6.17;;;19.00;99.90;;;;;;4998149;28;20496;-81
2022/09/05 07:09:58;;;;;;;14.37;6.53;;;19.20;99.90;;;;;;4993252;28;20492;-80
2022/09/05 07:12:49;;;;;;;6.33;5.30;;;19.40;99.90;;;;;;4994342;28;20440;-79
2022/09/05 07:15:51;;;;;;;5.50;4.90;;;19.60;99.90;;;;;;4980643;28;20520;-80
2022/09/05 07:19:04;;;;;;;5.87;5.37;;;19.70;99.90;;;;;;5015839;28;20467;-80
2022/09/05 07:22:12;;;;;;;8.13;4.80;;;19.90;99.90;;;;;;5009622;28;20434;-79
2022/09/05 07:25:00;;;;;;;5.73;5.23;;;20.10;99.90;;;;;;5013798;28;20470;-79
2022/09/05 07:27:55;;;;;;;7.03;6.30;;;20.20;99.90;;;;;;5002858;28;21121;-80
2022/09/05 07:30:46;;;;;;;7.20;6.50;;;20.40;99.90;;;;;;5009900;28;20530;-81
2022/09/05 07:33:30;;;;;;;8.20;5.87;;;20.30;99.90;;;;;;5005396;28;20507;-81
2022/09/05 07:36:22;;;;;;;5.33;4.93;;;20.30;99.90;;;;;;5011106;28;20483;-82
2022/09/05 07:39:09;;;;;;;6.00;5.50;;;20.50;99.90;;;;;;5007821;28;21038;-82
2022/09/05 07:41:58;;;;;;;9.00;5.80;;;20.70;99.90;;;;;;5009488;28;20447;-82
2022/09/05 07:44:55;;;;;;;6.87;5.50;;;20.70;99.90;;;;;;5013049;28;20490;-83
2022/09/05 07:47:48;;;;;;;6.37;5.60;;;20.80;99.90;;;;;;5011616;28;20832;-82
2022/09/05 07:50:48;;;;;;;10.80;5.43;;;21.00;99.90;;;;;;4999832;28;20926;-83
2022/09/05 07:53:36;;;;;;;9.30;4.43;;;21.00;99.90;;;;;;5007976;28;21022;-80
2022/09/05 07:56:44;;;;;;;4.60;4.23;;;21.10;99.90;;;;;;5014579;28;20459;-83
2022/09/05 07:59:32;;;;;;;3.63;3.33;;;21.00;99.90;;;;;;5014731;28;20435;-81
2022/09/05 08:02:20;;;;;;;9.00;4.10;;;20.90;99.90;;;;;;5007983;28;20447;-81
2022/09/05 08:05:05;;;;;;;4.30;3.73;;;21.00;99.90;;;;;;4995391;28;20459;-83
2022/09/05 08:07:55;;;;;;;4.50;3.70;;;21.10;99.90;;;;;;4997320;28;20486;-83
2022/09/05 08:10:46;;;;;;;5.53;4.83;;;21.10;99.90;;;;;;5001394;28;20438;-81
2022/09/05 08:13:56;;;;;;;4.40;3.47;;;21.30;99.90;;;;;;4994936;28;20495;-81
2022/09/05 08:16:41;;;;;;;3.73;3.43;;;21.30;99.90;;;;;;4983648;28;20926;-81
2022/09/05 08:19:44;;;;;;;3.20;3.00;;;21.60;99.90;;;;;;4996893;28;20491;-82
2022/09/05 08:22:34;;;;;;;3.93;3.30;;;21.90;99.90;;;;;;5007336;28;20438;-80
2022/09/05 08:25:33;;;;;;;4.13;3.17;;;21.70;99.90;;;;;;5011837;28;20475;-82
2022/09/05 08:28:25;;;;;;;4.20;3.07;;;22.00;99.90;;;;;;4958987;28;20872;-82
2022/09/05 08:31:15;;;;;;;3.60;3.40;;;22.00;99.90;;;;;;4968616;28;20791;-81
2022/09/05 08:34:03;;;;;;;3.73;3.53;;;22.20;99.90;;;;;;4960609;28;20981;-80
2022/09/05 08:36:51;;;;;;;4.47;3.73;;;22.40;99.90;;;;;;4968137;28;20484;-83
2022/09/05 08:39:35;;;;;;;4.00;3.70;;;22.50;99.90;;;;;;4969288;28;20452;-84
2022/09/05 08:42:35;;;;;;;4.40;4.00;;;22.50;99.90;;;;;;4962140;28;20508;-81
2022/09/05 08:45:29;;;;;;;4.13;3.73;;;22.50;99.90;;;;;;4963972;28;20469;-81
2022/09/05 08:48:32;;;;;;;4.73;3.53;;;22.40;99.90;;;;;;4973063;28;20473;-82
2022/09/05 08:51:39;;;;;;;3.30;3.10;;;22.70;99.90;;;;;;4967850;28;20512;-82
2022/09/05 08:54:35;;;;;;;3.30;3.00;;;22.70;99.90;;;;;;4971718;28;20448;-83
2022/09/05 08:57:50;;;;;;;3.47;3.20;;;22.90;99.90;;;;;;4969678;28;20529;-82
2022/09/05 09:00:45;;;;;;;4.40;3.60;;;23.20;99.90;;;;;;5004418;28;20435;-82
2022/09/05 09:03:54;;;;;;;3.53;3.23;;;23.20;99.90;;;;;;5005158;28;20443;-82
2022/09/05 09:07:09;;;;;;;6.50;4.27;;;23.30;99.90;;;;;;5002401;28;21038;-79
2022/09/05 09:10:21;;;;;;;4.23;3.93;;;23.60;99.90;;;;;;4995358;28;20470;-82
2022/09/05 09:13:18;;;;;;;4.67;3.53;;;23.90;99.90;;;;;;4999134;28;20494;-82
2022/09/05 09:16:15;;;;;;;5.57;5.17;;;24.30;99.90;;;;;;4997121;28;20541;-83
2022/09/05 09:19:10;;;;;;;3.90;3.20;;;24.20;99.90;;;;;;5003395;28;20811;-82
2022/09/05 09:22:15;;;;;;;3.53;3.23;;;24.20;99.90;;;;;;4983620;28;20512;-82
2022/09/05 09:25:10;;;;;;;8.80;3.33;;;24.50;99.90;;;;;;5005777;28;20471;-82
2022/09/05 09:28:21;;;;;;;2.90;2.63;;;24.60;99.90;;;;;;5003689;28;20451;-82
2022/09/05 09:31:41;;;;;;;3.00;2.80;;;24.60;99.90;;;;;;4999371;28;20446;-82
2022/09/05 09:34:47;;;;;;;3.43;3.13;;;25.40;99.90;;;;;;5007758;28;20434;-83
2022/09/05 09:37:55;;;;;;;3.57;3.27;;;25.70;99.90;;;;;;4992163;28;20555;-80
2022/09/05 09:41:16;;;;;;;4.47;4.07;;;25.40;99.90;;;;;;5004938;28;20439;-81
2022/09/05 09:44:36;;;;;;;3.93;2.80;;;25.80;99.90;;;;;;4982551;28;21155;-82
2022/09/05 09:47:51;;;;;;;6.33;4.20;;;26.00;99.90;;;;;;4981920;28;20511;-82
2022/09/05 09:51:06;;;;;;;3.40;3.10;;;26.10;99.90;;;;;;4982403;28;20521;-82
2022/09/05 09:54:22;;;;;;;6.33;3.43;;;26.00;99.90;;;;;;5003298;28;20516;-79
2022/09/05 09:57:43;;;;;;;3.77;2.93;;;25.90;99.90;;;;;;5016859;28;20467;-82
2022/09/05 10:00:45;;;;;;;3.00;2.80;;;26.20;99.90;;;;;;5018039;28;20548;-80
2022/09/05 10:04:08;;;;;;;3.90;2.87;;;26.30;99.90;;;;;;5013397;28;20438;-81
2022/09/05 10:07:21;;;;;;;3.07;2.77;;;26.00;99.90;;;;;;5021367;28;20495;-81
2022/09/05 10:10:34;;;;;;;2.80;2.53;;;26.40;99.90;;;;;;5015710;28;21084;-82
2022/09/05 10:13:52;;;;;;;2.77;2.57;;;27.10;99.90;;;;;;5012318;28;20704;-79
2022/09/05 10:17:02;;;;;;;5.43;2.90;;;27.20;99.90;;;;;;5018473;28;20507;-81
2022/09/05 10:20:14;;;;;;;2.93;2.40;;;26.80;99.90;;;;;;5021584;28;20438;-82
2022/09/05 10:23:28;;;;;;;2.70;2.50;;;26.40;99.90;;;;;;5019482;28;20443;-82
2022/09/05 10:26:36;;;;;;;2.83;2.63;;;27.50;99.90;;;;;;5022499;28;20497;-80
2022/09/05 10:29:44;;;;;;;2.90;2.70;;;26.80;99.90;;;;;;5015637;28;20440;-80
2022/09/05 10:32:41;;;;;;;3.07;2.87;;;27.10;99.90;;;;;;5017268;28;20446;-82
2022/09/05 10:35:34;;;;;;;4.30;2.63;;;27.70;99.90;;;;;;5011683;28;20470;-82
2022/09/05 10:38:32;;;;;;;2.60;2.40;;;27.50;99.90;;;;;;5009782;28;20445;-82
2022/09/05 10:41:21;;;;;;;3.27;2.97;;;29.00;99.90;;;;;;5011529;28;20434;-82
2022/09/05 10:44:09;;;;;;;2.70;2.50;;;29.00;99.90;;;;;;5017975;28;20467;-83
2022/09/05 10:47:22;;;;;;;2.70;2.50;;;29.00;99.20;;;;;;5011579;28;20594;-83
2022/09/05 10:50:40;;;;;;;7.63;2.57;;;28.60;99.60;;;;;;5009366;28;20897;-83
2022/09/05 10:53:50;;;;;;;3.00;2.80;;;28.90;97.90;;;;;;5009962;28;20487;-82
2022/09/05 10:56:41;;;;;;;2.50;2.30;;;29.00;97.90;;;;;;5011352;28;20463;-83
2022/09/05 11:00:01;;;;;;;2.70;2.50;;;27.60;99.40;;;;;;4993758;28;20477;-81
2022/09/05 11:02:48;;;;;;;5.00;3.03;;;27.90;99.90;;;;;;5006442;28;20515;-81
2022/09/05 11:05:37;;;;;;;3.40;2.57;;;28.40;99.90;;;;;;5006047;28;20494;-82
2022/09/05 11:08:52;;;;;;;3.03;2.83;;;27.90;99.80;;;;;;4997909;28;20430;-83
2022/09/05 11:11:45;;;;;;;3.77;2.97;;;28.10;99.50;;;;;;5010131;28;20451;-80
2022/09/05 11:18:04;;;;;;;4.70;3.10;;;30.20;94.00;;;;;;5144634;27;20572;-79
2022/09/05 11:21:07;;;;;;;4.83;2.50;;;30.40;91.80;;;;;;5092838;28;20450;-80
2022/09/05 11:24:32;;;;;;;3.60;3.30;;;29.20;92.00;;;;;;5067908;28;20620;-78
2022/09/05 11:27:32;;;;;;;2.97;2.67;;;29.10;92.80;;;;;;5058872;28;20432;-80
2022/09/05 11:30:21;;;;;;;2.35;2.20;;;29.70;91.70;;;;;;5049855;28;20436;-80
2022/09/05 11:33:37;;;;;;;2.33;2.17;;;30.50;89.00;;;;;;5046564;28;20193;-80
2022/09/05 11:36:31;;;;;;;2.28;2.10;;;30.40;84.00;;;;;;5018507;28;20254;-77
2022/09/05 11:39:52;;;;;;;2.53;2.33;;;30.40;82.40;;;;;;5022340;28;20614;-78
2022/09/05 11:43:13;;;;;;;2.90;2.70;;;30.70;80.10;;;;;;5031612;28;20199;-79
2022/09/05 11:46:20;;;;;;;2.00;1.90;;;31.70;76.60;;;;;;5034556;28;20267;-80
2022/09/05 11:49:31;;;;;;;2.30;2.10;;;32.80;71.30;;;;;;4999325;28;20195;-78
2022/09/05 11:52:50;;;;;;;3.15;2.80;;;31.80;72.10;;;;;;4992189;28;20204;-78
2022/09/05 11:55:53;;;;;;;2.13;1.85;;;31.80;73.90;;;;;;4966991;28;20244;-79
2022/09/05 11:59:06;;;;;;;3.22;2.78;;;33.10;72.20;;;;;;4958348;28;20260;-77
2022/09/05 12:02:20;;;;;;;5.82;2.47;;;32.70;67.30;;;;;;4937875;29;20194;-77
2022/09/05 12:05:31;;;;;;;2.00;1.85;;;32.10;66.70;;;;;;4936521;29;20223;-76
2022/09/05 12:08:44;;;;;;;2.97;2.15;;;32.40;66.70;;;;;;4936566;29;20195;-77
2022/09/05 12:11:45;;;;;;;2.40;2.20;;;33.10;63.60;;;;;;4959482;28;20194;-77
2022/09/05 12:14:49;;;;;;;1.90;1.80;;;33.70;62.70;;;;;;4977390;28;20188;-77
2022/09/05 12:17:55;;;;;;;2.35;2.25;;;32.70;64.50;;;;;;4958975;28;20362;-77
2022/09/05 12:20:52;;;;;;;2.78;2.58;;;33.40;63.90;;;;;;4977619;28;20250;-78
2022/09/05 12:24:02;;;;;;;2.13;2.03;;;34.00;62.40;;;;;;5032662;28;20180;-77
2022/09/05 12:26:59;;;;;;;2.70;2.50;;;35.00;63.40;;;;;;5031219;28;20238;-80
2022/09/05 12:29:48;;;;;;;2.15;2.00;;;36.00;58.20;;;;;;5021227;28;20204;-77
2022/09/05 12:32:46;;;;;;;2.30;2.10;;;36.00;55.80;;;;;;5019001;28;20202;-78
2022/09/05 12:35:51;;;;;;;2.55;2.35;;;35.40;55.40;;;;;;5035142;28;20280;-79
2022/09/05 12:39:01;;;;;;;2.33;2.13;;;34.40;58.30;;;;;;5065005;28;20254;-82
2022/09/05 12:42:02;;;;;;;2.38;2.25;;;33.60;59.90;;;;;;5055409;28;20340;-80
2022/09/05 12:45:08;;;;;;;2.40;2.20;;;31.70;61.80;;;;;;5055581;28;20724;-79
2022/09/05 12:48:12;;;;;;;2.10;2.00;;;31.70;62.30;;;;;;5059174;28;20570;-78
2022/09/05 12:51:10;;;;;;;2.78;1.95;;;30.50;63.50;;;;;;5044659;28;20185;-80
2022/09/05 12:54:34;;;;;;;2.85;2.40;;;30.10;67.00;;;;;;5070263;28;20179;-78
2022/09/05 12:57:28;;;;;;;2.50;2.25;;;30.60;67.30;;;;;;5080079;28;20583;-80
2022/09/05 13:00:20;;;;;;;5.15;4.82;;;30.60;67.20;;;;;;4997257;28;20370;-80
2022/09/05 13:03:08;;;;;;;2.40;2.30;;;31.50;64.00;;;;;;5034572;28;20210;-80
2022/09/05 13:06:08;;;;;;;2.50;2.30;;;30.60;64.50;;;;;;5028289;28;20228;-80
2022/09/05 13:09:04;;;;;;;2.67;2.10;;;30.90;66.10;;;;;;5034513;28;20194;-80
2022/09/05 13:12:02;;;;;;;4.32;2.50;;;32.10;62.70;;;;;;5014233;28;20262;-80
2022/09/05 13:15:04;;;;;;;2.63;2.20;;;31.90;59.40;;;;;;5010757;28;20284;-79
2022/09/05 13:17:58;;;;;;;2.38;2.17;;;31.10;59.80;;;;;;5050650;28;20282;-79
2022/09/05 13:20:57;;;;;;;2.30;2.10;;;30.50;58.70;;;;;;4968523;28;20212;-79
2022/09/05 13:24:11;;;;;;;3.10;2.75;;;32.60;58.10;;;;;;4979847;28;20205;-80
2022/09/05 13:27:22;;;;;;;1.98;1.88;;;33.10;57.40;;;;;;4985273;28;20215;-80
2022/09/05 13:30:13;;;;;;;3.00;2.70;;;32.80;57.90;;;;;;4998002;28;20196;-80
2022/09/05 13:33:09;;;;;;;4.95;3.05;;;32.90;57.80;;;;;;4991939;28;20227;-79
2022/09/05 13:39:06;;;;;;;2.30;2.10;;;32.20;58.20;;;;;;4994006;28;20216;-79
2022/09/05 13:41:58;;;;;;;2.40;2.20;;;31.30;58.10;;;;;;4970563;28;20189;-80
2022/09/05 13:44:48;;;;;;;2.03;1.92;;;31.80;57.30;;;;;;4986668;28;20212;-78
2022/09/05 13:48:03;;;;;;;2.10;1.90;;;31.40;57.80;;;;;;4982323;28;20193;-80
2022/09/05 13:50:53;;;;;;;1.88;1.77;;;31.80;58.70;;;;;;5018055;28;20231;-80
2022/09/05 13:54:12;;;;;;;2.97;2.30;;;32.40;58.10;;;;;;5013483;28;20322;-80
2022/09/05 13:57:39;;;;;;;2.08;1.92;;;32.20;59.30;;;;;;4959690;28;20343;-81
2022/09/05 14:01:10;;;;;;;3.50;3.30;;;31.90;60.50;;;;;;4941617;29;20214;-80
2022/09/05 14:04:23;;;;;;;2.42;2.03;;;32.90;60.00;;;;;;4942272;29;20708;-82
2022/09/05 14:07:27;;;;;;;2.50;2.30;;;34.70;58.00;;;;;;4927678;29;20242;-81
2022/09/05 14:10:40;;;;;;;2.45;2.35;;;33.40;57.50;;;;;;4923381;29;20209;-84
2022/09/05 14:13:35;;;;;;;2.63;2.42;;;32.00;58.60;;;;;;4920040;29;20250;-83
2022/09/05 14:16:27;;;;;;;4.53;2.13;;;32.30;59.80;;;;;;4903364;29;20592;-83
2022/09/05 14:22:39;;;;;;;2.55;2.17;;;31.70;58.40;;;;;;4932159;29;20245;-80
2022/09/05 14:25:27;;;;;;;2.70;2.20;;;32.10;58.40;;;;;;4935433;29;20190;-82
2022/09/05 14:28:31;;;;;;;2.40;2.30;;;32.50;58.60;;;;;;4932172;29;20322;-81
2022/09/05 14:31:21;;;;;;;3.65;2.40;;;32.40;57.30;;;;;;4955084;28;20775;-82
2022/09/05 14:34:33;;;;;;;2.38;2.17;;;32.60;57.40;;;;;;4962135;28;20215;-82
2022/09/05 14:37:28;;;;;;;3.53;2.55;;;32.00;57.50;;;;;;4990606;28;20903;-82
2022/09/05 14:40:44;;;;;;;2.38;2.22;;;32.20;57.80;;;;;;4993026;28;20228;-83
2022/09/05 14:44:04;;;;;;;2.20;2.03;;;32.10;58.20;;;;;;4999738;28;20702;-82
2022/09/05 14:47:09;;;;;;;3.05;2.65;;;32.50;54.70;;;;;;5065003;28;20329;-82
2022/09/05 14:50:14;;;;;;;1.90;1.80;;;32.70;56.00;;;;;;5082414;28;20231;-81
2022/09/05 14:53:06;;;;;;;2.58;2.28;;;31.80;58.10;;;;;;5094068;28;20197;-81
2022/09/05 14:56:06;;;;;;;2.55;2.35;;;31.80;56.60;;;;;;5084629;28;20226;-82
2022/09/05 14:59:08;;;;;;;2.47;2.10;;;32.20;55.30;;;;;;5086017;28;20225;-83
2022/09/05 15:02:22;;;;;;;3.40;2.22;;;32.70;56.80;;;;;;5095063;28;20189;-81
2022/09/05 15:05:17;;;;;;;2.70;1.92;;;33.60;54.40;;;;;;5101164;28;20225;-83
2022/09/05 15:08:06;;;;;;;2.47;2.28;;;33.80;53.80;;;;;;5100888;28;20202;-82
2022/09/05 15:10:54;;;;;;;2.10;2.00;;;33.30;52.90;;;;;;5094390;28;20208;-83
2022/09/05 15:13:57;;;;;;;2.20;2.10;;;33.90;53.70;;;;;;5096356;28;20245;-82
2022/09/05 15:16:57;;;;;;;3.10;2.70;;;32.80;54.80;;;;;;5093697;28;20232;-80
2022/09/05 15:19:50;;;;;;;3.42;3.13;;;32.50;55.50;;;;;;5096950;28;20224;-81
2022/09/05 15:22:40;;;;;;;3.80;3.47;;;32.60;53.70;;;;;;5084270;28;20245;-81
2022/09/05 15:25:26;;;;;;;2.88;2.67;;;32.70;54.60;;;;;;5081783;28;20180;-83
2022/09/05 15:28:28;;;;;;;2.15;2.05;;;32.90;55.00;;;;;;5099367;28;20178;-80
2022/09/05 15:31:24;;;;;;;2.60;2.40;;;32.10;55.00;;;;;;5099439;28;20699;-80
2022/09/05 15:34:27;;;;;;;3.65;3.30;;;31.70;55.00;;;;;;5097993;28;20277;-82
2022/09/05 15:37:41;;;;;;;2.78;2.58;;;31.50;55.80;;;;;;5090475;28;20212;-82
2022/09/05 15:40:26;;;;;;;2.22;2.03;;;32.30;54.40;;;;;;5087252;28;20197;-83
2022/09/05 15:43:15;;;;;;;2.20;2.00;;;33.30;53.20;;;;;;5085805;28;20222;-83
2022/09/05 15:46:02;;;;;;;2.45;2.25;;;33.20;53.80;;;;;;5088614;28;20208;-83
2022/09/05 15:48:54;;;;;;;2.55;2.35;;;33.50;51.90;;;;;;5081454;28;20188;-83
2022/09/05 15:51:49;;;;;;;2.17;2.08;;;34.00;51.70;;;;;;5085474;28;20182;-83
2022/09/05 15:54:39;;;;;;;2.80;2.60;;;33.80;50.80;;;;;;5087578;28;20189;-82
2022/09/05 15:57:35;;;;;;;2.08;1.98;;;33.00;52.80;;;;;;5091676;28;20578;-83